createdAt,value
2019-01-18T00:00:02.700Z,2.1
2019-01-18T00:05:15.303Z,2.1
2019-01-18T00:10:02.660Z,2.1
2019-01-18T00:15:02.559Z,2.1
2019-01-18T00:20:02.541Z,2.1
2019-01-18T00:25:04.984Z,2.1
2019-01-18T00:30:02.858Z,2
2019-01-18T00:35:05.266Z,1.9
2019-01-18T00:40:02.617Z,1.9
2019-01-18T00:45:07.588Z,1.9
2019-01-18T00:50:07.495Z,1.9
2019-01-18T00:55:17.495Z,1.9
2019-01-18T01:00:02.432Z,1.8
2019-01-18T01:05:04.879Z,1.5
2019-01-18T01:10:07.349Z,1.2
2019-01-18T01:15:20.895Z,0.7
2019-01-18T01:20:07.921Z,0.5
2019-01-18T01:25:02.793Z,0.5
2019-01-18T01:30:02.712Z,0.3
2019-01-18T01:35:05.128Z,0.1
2019-01-18T01:40:04.979Z,0
2019-01-18T01:45:02.502Z,0
2019-01-18T01:50:07.439Z,0
2019-01-18T01:55:05.799Z,0
2019-01-18T02:00:07.796Z,0
2019-01-18T02:05:10.195Z,0
2019-01-18T02:10:05.091Z,-0.1
2019-01-18T02:15:04.970Z,-0.1
2019-01-18T02:20:05.467Z,-0.1
2019-01-18T02:25:02.840Z,-0.1
2019-01-18T02:30:07.820Z,-0.2
2019-01-18T02:35:15.310Z,-0.2
2019-01-18T02:40:05.223Z,-0.2
2019-01-18T02:45:02.588Z,-0.2
2019-01-18T02:50:02.526Z,-0.2
2019-01-18T02:55:02.389Z,-0.2
2019-01-18T03:00:04.845Z,-0.2
2019-01-18T03:05:02.276Z,-0.2
2019-01-18T03:10:02.606Z,-0.2
2019-01-18T03:15:02.562Z,-0.2
2019-01-18T03:20:07.557Z,-0.3
2019-01-18T03:25:04.919Z,-0.2
2019-01-18T03:30:02.908Z,-0.2
2019-01-18T03:35:03.230Z,-0.2
2019-01-18T03:40:02.669Z,-0.1
2019-01-18T03:45:02.620Z,-0.1
2019-01-18T03:50:10.409Z,-0.1
2019-01-18T03:55:02.749Z,-0.1
2019-01-18T04:00:02.695Z,-0.1
2019-01-18T04:05:05.078Z,-0.1
2019-01-18T04:10:07.486Z,-0.1
2019-01-18T04:15:15.009Z,0
2019-01-18T04:20:03.007Z,0
2019-01-18T04:25:08.015Z,0
2019-01-18T04:30:02.947Z,0
2019-01-18T04:35:02.950Z,0.1
2019-01-18T04:40:03.291Z,0.2
2019-01-18T04:45:05.706Z,0.2
2019-01-18T04:50:05.226Z,0.2
2019-01-18T04:55:05.168Z,0.3
2019-01-18T05:00:05.593Z,0.3
2019-01-18T05:05:08.188Z,0.2
2019-01-18T05:10:05.100Z,0.2
2019-01-18T05:15:07.600Z,0.2
2019-01-18T05:20:07.717Z,0.1
2019-01-18T05:25:17.796Z,-0.3
2019-01-18T05:30:07.783Z,-0.3
2019-01-18T05:35:02.564Z,-0.3
2019-01-18T05:40:05.424Z,-0.2
2019-01-18T05:45:02.893Z,-0.3
2019-01-18T05:50:02.801Z,-0.3
2019-01-18T05:55:05.239Z,-0.4
2019-01-18T06:00:20.854Z,-0.4
2019-01-18T06:05:05.599Z,-0.4
2019-01-18T06:10:02.911Z,-0.4
2019-01-18T06:15:07.877Z,-0.5
2019-01-18T06:20:20.629Z,-0.6
2019-01-18T06:25:05.402Z,-0.6
2019-01-18T06:30:05.011Z,-0.6
2019-01-18T06:35:07.466Z,-0.6
2019-01-18T06:40:12.997Z,0.6
2019-01-18T06:45:07.848Z,-0.6
2019-01-18T06:50:05.269Z,-0.6
2019-01-18T06:55:20.379Z,-0.6
2019-01-18T07:00:02.330Z,-0.6
2019-01-18T07:05:02.350Z,-0.6
2019-01-18T07:10:07.755Z,-0.7
2019-01-18T07:15:02.789Z,-0.7
2019-01-18T07:20:02.755Z,-0.7
2019-01-18T07:25:05.168Z,-0.8
2019-01-18T07:30:03.041Z,-0.8
2019-01-18T07:35:02.918Z,-0.8
2019-01-18T07:40:02.378Z,-0.9
2019-01-18T07:45:03.210Z,-0.9
2019-01-18T07:50:02.597Z,-0.9
2019-01-18T07:55:03.072Z,-0.9
2019-01-18T08:00:03.012Z,-0.9
2019-01-18T08:05:05.400Z,-0.8
2019-01-18T08:10:05.306Z,-1
2019-01-18T08:15:10.375Z,-1
2019-01-18T08:20:09.875Z,-0.9
2019-01-18T08:25:09.972Z,-0.9
2019-01-18T08:30:02.863Z,-0.9
2019-01-18T08:35:07.856Z,-0.8
2019-01-18T08:40:15.850Z,-0.8
2019-01-18T08:45:03.122Z,-0.8
2019-01-18T08:50:05.632Z,-0.7
2019-01-18T08:55:02.980Z,-0.7
2019-01-18T09:00:18.084Z,-0.6
2019-01-18T09:05:05.358Z,-0.6
2019-01-18T09:10:08.064Z,-0.6
2019-01-18T09:15:03.119Z,-0.6
2019-01-18T09:20:05.092Z,-0.6
2019-01-18T09:25:04.978Z,-0.5
2019-01-18T09:30:02.921Z,-0.6
2019-01-18T09:35:10.335Z,-0.5
2019-01-18T09:40:22.904Z,-0.4
2019-01-18T09:45:12.681Z,-0.3
2019-01-18T09:50:02.601Z,-0.3
2019-01-18T09:55:02.439Z,-0.3
2019-01-18T10:00:17.572Z,-0.2
2019-01-18T10:05:02.298Z,-0.2
2019-01-18T10:10:02.671Z,-0.2
2019-01-18T10:15:12.882Z,0
2019-01-18T10:20:35.775Z,0
2019-01-18T10:25:05.209Z,0.1
2019-01-18T10:30:03.124Z,0.1
2019-01-18T10:35:10.587Z,0.3
2019-01-18T10:40:10.548Z,0.3
2019-01-18T10:45:02.881Z,0.3
2019-01-18T10:50:05.375Z,0.4
2019-01-18T10:55:12.913Z,0.5
2019-01-18T11:00:02.802Z,0.5
2019-01-18T11:05:02.679Z,0.5
2019-01-18T11:10:07.997Z,0.7
2019-01-18T11:15:07.854Z,0.7
2019-01-18T11:20:02.729Z,0.7
2019-01-18T11:25:15.267Z,0.8
2019-01-18T11:30:05.615Z,0.8
2019-01-18T11:35:05.451Z,0.9
2019-01-18T11:40:05.231Z,1
2019-01-18T11:45:12.647Z,1
2019-01-18T11:50:07.516Z,1
2019-01-18T11:55:04.927Z,1.1
2019-01-18T12:00:05.385Z,1.1
2019-01-18T12:05:02.362Z,1.2
2019-01-18T12:10:02.717Z,1.2
2019-01-18T12:15:02.559Z,1.2
2019-01-18T12:20:05.001Z,1.4
2019-01-18T12:25:02.308Z,1.4
2019-01-18T12:30:03.172Z,1.4
2019-01-18T12:35:15.606Z,1.5
2019-01-18T12:40:07.958Z,1.5
2019-01-18T12:45:05.284Z,1.5
2019-01-18T12:50:05.658Z,1.7
2019-01-18T12:55:08.018Z,1.8
2019-01-18T13:00:07.997Z,2.1
2019-01-18T13:05:15.412Z,2.3
2019-01-18T13:10:02.686Z,2.3
2019-01-18T13:15:05.062Z,2.4
2019-01-18T13:20:02.958Z,2.3
2019-01-18T13:25:07.861Z,2.7
2019-01-18T13:30:05.230Z,2.7
2019-01-18T13:35:02.557Z,2.6
2019-01-18T13:40:06.199Z,2.6
2019-01-18T13:45:02.700Z,2.7
2019-01-18T13:50:10.095Z,2.5
2019-01-18T13:55:02.359Z,2.5
2019-01-18T14:00:20.941Z,2.6
2019-01-18T14:05:03.043Z,2.6
2019-01-18T14:10:04.914Z,2.6
2019-01-18T14:15:03.152Z,2.6
2019-01-18T14:20:05.643Z,2.5
2019-01-18T14:25:02.716Z,2.5
2019-01-18T14:30:05.115Z,2.4
2019-01-18T14:35:04.928Z,2.3
2019-01-18T14:40:13.196Z,2.3
2019-01-18T14:45:02.906Z,2.3
2019-01-18T14:50:02.788Z,2.2
2019-01-18T14:55:05.170Z,2.2
2019-01-18T15:00:03.044Z,2.2
2019-01-18T15:05:05.404Z,2
2019-01-18T15:10:05.044Z,2
2019-01-18T15:15:05.635Z,1.7
2019-01-18T15:20:12.726Z,1.6
2019-01-18T15:25:05.050Z,1.5
2019-01-18T15:30:18.112Z,1.3
2019-01-18T15:35:02.780Z,1.4
2019-01-18T15:40:05.566Z,1.1
2019-01-18T15:45:12.980Z,1
2019-01-18T15:50:02.805Z,1
2019-01-18T15:55:02.679Z,1
2019-01-18T16:00:07.618Z,0.8
2019-01-18T16:05:04.932Z,0.8
2019-01-18T16:10:07.659Z,0.8
2019-01-18T16:15:07.700Z,0.9
2019-01-18T16:20:05.311Z,0.9
2019-01-18T16:25:02.670Z,0.9
2019-01-18T16:30:10.196Z,0.9
2019-01-18T16:35:07.617Z,1
2019-01-18T16:40:07.491Z,1.1
2019-01-18T16:45:02.332Z,1
2019-01-18T16:50:08.339Z,1.1
2019-01-18T16:55:05.743Z,1.2
2019-01-18T17:00:07.797Z,1.2
2019-01-18T17:05:10.313Z,1.2
2019-01-18T17:10:07.801Z,1.2
2019-01-18T17:15:05.209Z,1.2
2019-01-18T17:20:10.800Z,1.3
2019-01-18T17:25:03.212Z,1.3
2019-01-18T17:30:03.113Z,1.3
2019-01-18T17:35:18.304Z,1.3
2019-01-18T17:40:02.743Z,1.3
2019-01-18T17:45:07.705Z,1.3
2019-01-18T17:50:07.740Z,1.3
2019-01-18T17:55:05.103Z,1.3
2019-01-18T18:00:05.565Z,1.3
2019-01-18T18:05:08.080Z,1.4
2019-01-18T18:10:02.507Z,1.4
2019-01-18T18:15:02.487Z,1.4
2019-01-18T18:20:02.548Z,1.4
2019-01-18T18:25:02.514Z,1.5
2019-01-18T18:30:07.561Z,1.5
2019-01-18T18:35:05.015Z,1.5
2019-01-18T18:40:04.933Z,1.5
2019-01-18T18:45:20.110Z,1.5
2019-01-18T18:50:03.044Z,1.5
2019-01-18T18:55:15.746Z,1.6
2019-01-18T19:00:02.676Z,1.6
2019-01-18T19:05:02.665Z,1.6
2019-01-18T19:10:05.614Z,1.7
2019-01-18T19:15:05.584Z,1.7
2019-01-18T19:20:02.656Z,0.1
2019-01-18T19:25:05.212Z,1.8
2019-01-18T19:30:05.711Z,1.8
2019-01-18T19:35:03.073Z,1.7
2019-01-18T19:40:04.963Z,1.8
2019-01-18T19:45:10.757Z,1.8
2019-01-18T19:50:02.751Z,1.8
2019-01-18T19:55:20.369Z,1.8
2019-01-18T20:00:03.281Z,1.8
2019-01-18T20:05:05.769Z,1.8
2019-01-18T20:10:05.742Z,1.8
2019-01-18T20:15:08.209Z,1.8
2019-01-18T20:20:20.916Z,1.8
2019-01-18T20:25:08.246Z,1.8
2019-01-18T20:30:08.290Z,1.8
2019-01-18T20:35:03.150Z,1.8
2019-01-18T20:40:05.052Z,1.9
2019-01-18T20:45:02.512Z,1.9
2019-01-18T20:50:05.000Z,1.9
2019-01-18T20:55:09.994Z,1.9
2019-01-18T21:00:02.961Z,1.9
2019-01-18T21:05:05.239Z,1.9
2019-01-18T21:10:20.417Z,1.9
2019-01-18T21:15:27.960Z,1.9
2019-01-18T21:20:03.034Z,1.9
2019-01-18T21:25:28.273Z,2
2019-01-18T21:30:03.357Z,1.9
2019-01-18T21:35:02.484Z,2
2019-01-18T21:40:02.963Z,2
2019-01-18T21:45:05.467Z,2
2019-01-18T21:50:10.322Z,1.9
2019-01-18T21:55:02.671Z,1.9
2019-01-18T22:00:22.879Z,1.8
2019-01-18T22:05:07.703Z,1.8
2019-01-18T22:10:05.648Z,1.8
2019-01-18T22:15:03.092Z,1.8
2019-01-18T22:20:03.139Z,1.8
2019-01-18T22:25:03.048Z,1.8
2019-01-18T22:30:03.014Z,1.8
2019-01-18T22:35:05.519Z,1.8
2019-01-18T22:40:02.994Z,1.7
2019-01-18T22:45:02.935Z,1.7
2019-01-18T22:50:07.925Z,1.7
2019-01-18T22:55:05.361Z,1.8
2019-01-18T23:00:02.339Z,1.8
2019-01-18T23:05:05.159Z,1.8
2019-01-18T23:10:10.136Z,1.8
2019-01-18T23:15:20.187Z,1.8
2019-01-18T23:20:03.213Z,1.8
2019-01-18T23:25:08.246Z,1.8
2019-01-18T23:30:03.202Z,1.8
2019-01-18T23:35:03.456Z,1.8
2019-01-18T23:40:08.024Z,1.8
2019-01-18T23:45:08.059Z,1.8
2019-01-18T23:50:05.530Z,1.8
2019-01-18T23:55:05.480Z,1.9
